Wolf Creek, MT (59648)

1:55 AM MDT on June 02, 2015 (GMT -0600)
Craig, Montana | | Change Station
CLOSE
Current Station
Personal Weather Station
Location: Craig, MT
Elevation: 3566 ft
Nearby Weather Stations

Elev 3566 ft 47.13 °N, 111.90 °W | Updated 24 seconds ago

Mostly Cloudy
Mostly Cloudy
49.8 °F
Feels Like 50 °F
N
0.4
Wind Variable Wind from South
Gusts 3.1 mph

Today
High -- | Low -- °F
--% Chance of Precip.
Yesterday
High -- | Low -- °F
Precip. -- in
5:36 AM 9:16 PM
Full, 100% visible
Pressure 29.87 in
Visibility 10.0 miles
Clouds Clear
Windchill 50 °F
Dew Point 50 °F
Humidity 99%
Rainfall 0.00 in
Snow Depth Not available.
UV 0 out of 12
Pollen 6.80 out of 12
Air Quality Not available.
Flu Activity Sporadic
METAR KHLN 020653Z AUTO 00000KT 10SM CLR 12/10 A2989 RMK AO2 SLP114 T01170100 402390117

More Conditions Fewer Conditions

Pressure 29.87 in
Visibility 10.0 miles
Clouds Clear
Windchill 50 °F
Dew Point 50 °F
Humidity 99%
Rainfall 0.00 in
Snow Depth Not available.
UV 0 out of 12
Pollen 6.80 out of 12
Air Quality Not available.
Flu Activity Sporadic
METAR KHLN 020653Z AUTO 00000KT 10SM CLR 12/10 A2989 RMK AO2 SLP114 T01170100 402390117

More Conditions Fewer Conditions

10-Day Weather Forecast

Almanac

Astronomy

Jun. 02, 2015 Rise Set
Actual Time
Civil Twilight
Nautical Twilight
Astronomical Twilight
Moon
Length of Visible Light
Length of Day
Tomorrow will be .
, % of the Moon is Illuminated

Today's Extremes

State Highs State Lows

Community

WunderPhotos

Upload Photos

1,825,905 photos uploaded!

WunderBlogs® & News

Nearby

Air Quality

  Air Quality AQ Index Pollutant
Not available.

Snow Depth

Station Depth Elevation

Earthquake Activity

City Distance Mag. Time & Date
Minimum magnitude displayed is 2.5.

Coastal Water Temperatures

Place Temperature

Stations

Nearby Weather Stations

Station Location Temp. Windchill Dew Point Humidity Wind Precip. Elev Updated Type